sensor_id;sensor_type;location;lat;lon;timestamp;temperature;humidity
13992;DHT22;7070;53.586;9.692;2022-12-17T00:00:40;-3.30;85.00
13992;DHT22;7070;53.586;9.692;2022-12-17T00:03:24;-3.30;85.00
13992;DHT22;7070;53.586;9.692;2022-12-17T00:06:08;-3.30;85.10
13992;DHT22;7070;53.586;9.692;2022-12-17T00:08:53;-3.40;85.00
13992;DHT22;7070;53.586;9.692;2022-12-17T00:11:38;-3.40;84.90
13992;DHT22;7070;53.586;9.692;2022-12-17T00:14:22;-3.40;85.00
13992;DHT22;7070;53.586;9.692;2022-12-17T00:17:06;-3.40;85.00
13992;DHT22;7070;53.586;9.692;2022-12-17T00:19:50;-3.40;85.00
13992;DHT22;7070;53.586;9.692;2022-12-17T00:22:34;-3.40;85.00
13992;DHT22;7070;53.586;9.692;2022-12-17T00:25:18;-3.50;85.00
13992;DHT22;7070;53.586;9.692;2022-12-17T00:28:08;-3.50;85.00
13992;DHT22;7070;53.586;9.692;2022-12-17T00:30:52;-3.50;84.90
13992;DHT22;7070;53.586;9.692;2022-12-17T00:33:36;-3.60;84.70
13992;DHT22;7070;53.586;9.692;2022-12-17T00:36:32;-3.50;84.90
13992;DHT22;7070;53.586;9.692;2022-12-17T00:39:16;-3.60;84.70
13992;DHT22;7070;53.586;9.692;2022-12-17T00:42:01;-3.60;84.80
13992;DHT22;7070;53.586;9.692;2022-12-17T00:44:46;-3.60;84.80
13992;DHT22;7070;53.586;9.692;2022-12-17T00:47:30;-3.70;84.70
13992;DHT22;7070;53.586;9.692;2022-12-17T00:50:15;-3.70;84.80
13992;DHT22;7070;53.586;9.692;2022-12-17T00:52:59;-4.40;84.10
13992;DHT22;7070;53.586;9.692;2022-12-17T00:55:43;-3.80;84.70
13992;DHT22;7070;53.586;9.692;2022-12-17T00:58:27;-3.80;84.80
13992;DHT22;7070;53.586;9.692;2022-12-17T01:01:13;-3.80;84.80
13992;DHT22;7070;53.586;9.692;2022-12-17T01:03:57;-3.80;84.90
13992;DHT22;7070;53.586;9.692;2022-12-17T01:06:41;-3.80;84.90
13992;DHT22;7070;53.586;9.692;2022-12-17T01:09:25;-3.90;84.80
13992;DHT22;7070;53.586;9.692;2022-12-17T01:12:09;-3.90;84.80
13992;DHT22;7070;53.586;9.692;2022-12-17T01:14:53;-3.90;84.90
13992;DHT22;7070;53.586;9.692;2022-12-17T01:17:53;-3.90;84.90
13992;DHT22;7070;53.586;9.692;2022-12-17T01:20:37;-3.90;84.90
13992;DHT22;7070;53.586;9.692;2022-12-17T01:23:22;-3.90;84.80
13992;DHT22;7070;53.586;9.692;2022-12-17T01:26:06;-4.00;84.70
13992;DHT22;7070;53.586;9.692;2022-12-17T01:28:50;-4.00;84.70
13992;DHT22;7070;53.586;9.692;2022-12-17T01:31:34;-3.90;84.90
13992;DHT22;7070;53.586;9.692;2022-12-17T01:34:20;-4.00;84.70
13992;DHT22;7070;53.586;9.692;2022-12-17T01:37:04;-4.00;84.80
13992;DHT22;7070;53.586;9.692;2022-12-17T01:39:49;-4.00;84.80
13992;DHT22;7070;53.586;9.692;2022-12-17T01:42:47;-4.00;84.80
13992;DHT22;7070;53.586;9.692;2022-12-17T01:45:35;-4.00;84.80
13992;DHT22;7070;53.586;9.692;2022-12-17T01:48:24;-4.10;85.40
13992;DHT22;7070;53.586;9.692;2022-12-17T01:51:13;-4.10;84.80
13992;DHT22;7070;53.586;9.692;2022-12-17T01:53:59;-4.00;84.90
13992;DHT22;7070;53.586;9.692;2022-12-17T01:56:44;-4.20;84.70
13992;DHT22;7070;53.586;9.692;2022-12-17T01:59:36;-4.00;84.90
13992;DHT22;7070;53.586;9.692;2022-12-17T02:02:22;-4.10;84.80
13992;DHT22;7070;53.586;9.692;2022-12-17T02:05:06;-4.10;84.70
13992;DHT22;7070;53.586;9.692;2022-12-17T02:07:59;-4.10;84.70
13992;DHT22;7070;53.586;9.692;2022-12-17T02:10:55;-4.10;84.70
13992;DHT22;7070;53.586;9.692;2022-12-17T02:13:49;-4.10;84.70
13992;DHT22;7070;53.586;9.692;2022-12-17T02:16:42;-4.10;84.80
13992;DHT22;7070;53.586;9.692;2022-12-17T02:19:36;-4.20;84.70
13992;DHT22;7070;53.586;9.692;2022-12-17T02:22:32;-4.20;84.80
13992;DHT22;7070;53.586;9.692;2022-12-17T02:25:33;-4.20;84.80
13992;DHT22;7070;53.586;9.692;2022-12-17T02:28:21;-4.20;84.70
13992;DHT22;7070;53.586;9.692;2022-12-17T02:31:07;-4.10;84.80
13992;DHT22;7070;53.586;9.692;2022-12-17T02:33:52;-4.20;84.70
13992;DHT22;7070;53.586;9.692;2022-12-17T02:36:37;-4.20;84.80
13992;DHT22;7070;53.586;9.692;2022-12-17T02:39:21;-4.20;84.70
13992;DHT22;7070;53.586;9.692;2022-12-17T02:42:06;-2.70;86.10
13992;DHT22;7070;53.586;9.692;2022-12-17T02:44:52;-4.10;84.90
13992;DHT22;7070;53.586;9.692;2022-12-17T02:47:37;-4.10;84.90
13992;DHT22;7070;53.586;9.692;2022-12-17T02:50:22;-4.10;84.70
13992;DHT22;7070;53.586;9.692;2022-12-17T02:53:06;-4.10;84.80
13992;DHT22;7070;53.586;9.692;2022-12-17T02:55:51;-4.20;84.60
13992;DHT22;7070;53.586;9.692;2022-12-17T02:58:35;-4.10;84.50
13992;DHT22;7070;53.586;9.692;2022-12-17T03:01:20;-4.10;84.60
13992;DHT22;7070;53.586;9.692;2022-12-17T03:04:10;-4.20;84.50
13992;DHT22;7070;53.586;9.692;2022-12-17T03:06:55;-4.20;84.60
13992;DHT22;7070;53.586;9.692;2022-12-17T03:09:39;-4.20;84.50
13992;DHT22;7070;53.586;9.692;2022-12-17T03:12:23;-4.20;85.10
13992;DHT22;7070;53.586;9.692;2022-12-17T03:15:08;-4.20;84.40
13992;DHT22;7070;53.586;9.692;2022-12-17T03:17:54;-4.20;84.50
13992;DHT22;7070;53.586;9.692;2022-12-17T03:20:38;-4.20;84.40
13992;DHT22;7070;53.586;9.692;2022-12-17T03:23:22;-4.30;84.30
13992;DHT22;7070;53.586;9.692;2022-12-17T03:26:06;-4.30;84.40
13992;DHT22;7070;53.586;9.692;2022-12-17T03:28:51;-4.30;84.30
13992;DHT22;7070;53.586;9.692;2022-12-17T03:31:35;-4.30;85.10
13992;DHT22;7070;53.586;9.692;2022-12-17T03:34:29;-4.30;84.20
13992;DHT22;7070;53.586;9.692;2022-12-17T03:37:13;-4.40;84.10
13992;DHT22;7070;53.586;9.692;2022-12-17T03:39:57;-4.40;84.30
13992;DHT22;7070;53.586;9.692;2022-12-17T03:42:41;-4.40;84.20
13992;DHT22;7070;53.586;9.692;2022-12-17T03:45:25;-4.40;84.20
13992;DHT22;7070;53.586;9.692;2022-12-17T03:48:11;-4.40;84.20
13992;DHT22;7070;53.586;9.692;2022-12-17T03:50:58;-4.40;84.30
13992;DHT22;7070;53.586;9.692;2022-12-17T03:53:43;-4.50;84.20
13992;DHT22;7070;53.586;9.692;2022-12-17T03:56:27;-4.50;84.20
13992;DHT22;7070;53.586;9.692;2022-12-17T03:59:12;-4.50;84.20
13992;DHT22;7070;53.586;9.692;2022-12-17T04:01:57;-4.50;84.20
13992;DHT22;7070;53.586;9.692;2022-12-17T04:04:41;-4.50;84.40
13992;DHT22;7070;53.586;9.692;2022-12-17T04:07:26;-4.60;84.10
13992;DHT22;7070;53.586;9.692;2022-12-17T04:10:11;-4.50;84.20
13992;DHT22;7070;53.586;9.692;2022-12-17T04:12:56;-4.60;84.10
13992;DHT22;7070;53.586;9.692;2022-12-17T04:15:40;-4.60;84.10
13992;DHT22;7070;53.586;9.692;2022-12-17T04:18:24;-4.60;84.00
13992;DHT22;7070;53.586;9.692;2022-12-17T04:21:08;-4.60;84.00
13992;DHT22;7070;53.586;9.692;2022-12-17T04:23:54;-4.60;84.00
13992;DHT22;7070;53.586;9.692;2022-12-17T04:26:38;-4.70;83.90
13992;DHT22;7070;53.586;9.692;2022-12-17T04:29:23;-4.70;84.20
13992;DHT22;7070;53.586;9.692;2022-12-17T04:32:07;-4.70;84.10
13992;DHT22;7070;53.586;9.692;2022-12-17T04:34:51;-4.70;84.00
13992;DHT22;7070;53.586;9.692;2022-12-17T04:37:35;-4.70;83.90
13992;DHT22;7070;53.586;9.692;2022-12-17T04:40:21;-4.70;84.10
13992;DHT22;7070;53.586;9.692;2022-12-17T04:43:05;-4.70;84.00
13992;DHT22;7070;53.586;9.692;2022-12-17T04:45:50;-4.80;83.90
13992;DHT22;7070;53.586;9.692;2022-12-17T04:48:34;-4.80;83.80
13992;DHT22;7070;53.586;9.692;2022-12-17T04:51:18;-4.90;83.70
13992;DHT22;7070;53.586;9.692;2022-12-17T04:54:02;-4.50;84.10
13992;DHT22;7070;53.586;9.692;2022-12-17T04:56:59;-4.90;83.70
13992;DHT22;7070;53.586;9.692;2022-12-17T04:59:44;-4.90;83.70
13992;DHT22;7070;53.586;9.692;2022-12-17T05:02:28;-5.00;83.70
13992;DHT22;7070;53.586;9.692;2022-12-17T05:05:12;-5.00;83.70
13992;DHT22;7070;53.586;9.692;2022-12-17T05:07:56;-5.10;83.50
13992;DHT22;7070;53.586;9.692;2022-12-17T05:10:41;-5.00;83.80
13992;DHT22;7070;53.586;9.692;2022-12-17T05:13:27;-5.00;84.00
13992;DHT22;7070;53.586;9.692;2022-12-17T05:16:11;-5.00;83.90
13992;DHT22;7070;53.586;9.692;2022-12-17T05:18:56;-5.00;84.00
13992;DHT22;7070;53.586;9.692;2022-12-17T05:21:40;-5.00;84.00
13992;DHT22;7070;53.586;9.692;2022-12-17T05:24:24;-5.10;83.90
13992;DHT22;7070;53.586;9.692;2022-12-17T05:27:08;-5.00;84.00
13992;DHT22;7070;53.586;9.692;2022-12-17T05:30:06;-5.10;83.90
13992;DHT22;7070;53.586;9.692;2022-12-17T05:32:57;-5.10;83.90
13992;DHT22;7070;53.586;9.692;2022-12-17T05:35:42;-5.10;83.90
13992;DHT22;7070;53.586;9.692;2022-12-17T05:38:26;-5.00;84.00
13992;DHT22;7070;53.586;9.692;2022-12-17T05:41:10;-5.00;84.00
13992;DHT22;7070;53.586;9.692;2022-12-17T05:43:54;-5.00;84.00
13992;DHT22;7070;53.586;9.692;2022-12-17T05:46:39;-5.10;84.00
13992;DHT22;7070;53.586;9.692;2022-12-17T05:49:24;-5.00;84.10
13992;DHT22;7070;53.586;9.692;2022-12-17T05:52:08;-5.00;84.10
13992;DHT22;7070;53.586;9.692;2022-12-17T05:55:01;-5.00;84.10
13992;DHT22;7070;53.586;9.692;2022-12-17T05:57:45;-4.90;84.10
13992;DHT22;7070;53.586;9.692;2022-12-17T06:00:34;-5.00;84.00
13992;DHT22;7070;53.586;9.692;2022-12-17T06:03:20;-5.00;84.00
13992;DHT22;7070;53.586;9.692;2022-12-17T06:06:05;-5.00;84.00
13992;DHT22;7070;53.586;9.692;2022-12-17T06:08:49;-5.00;84.00
13992;DHT22;7070;53.586;9.692;2022-12-17T06:11:33;-4.90;84.00
13992;DHT22;7070;53.586;9.692;2022-12-17T06:14:17;-4.90;84.00
13992;DHT22;7070;53.586;9.692;2022-12-17T06:17:01;-4.90;84.00
13992;DHT22;7070;53.586;9.692;2022-12-17T06:19:47;-4.90;84.00
13992;DHT22;7070;53.586;9.692;2022-12-17T06:22:27;-4.90;84.10
13992;DHT22;7070;53.586;9.692;2022-12-17T06:25:12;-4.90;84.00
13992;DHT22;7070;53.586;9.692;2022-12-17T06:27:57;-4.90;84.00
13992;DHT22;7070;53.586;9.692;2022-12-17T06:30:42;-4.90;84.00
13992;DHT22;7070;53.586;9.692;2022-12-17T06:33:26;-4.90;83.90
13992;DHT22;7070;53.586;9.692;2022-12-17T06:36:11;-4.90;83.90
13992;DHT22;7070;53.586;9.692;2022-12-17T06:38:56;-4.90;83.90
13992;DHT22;7070;53.586;9.692;2022-12-17T06:41:40;-4.90;83.80
13992;DHT22;7070;53.586;9.692;2022-12-17T06:44:27;-4.90;83.80
13992;DHT22;7070;53.586;9.692;2022-12-17T06:47:11;-4.90;83.80
13992;DHT22;7070;53.586;9.692;2022-12-17T06:49:55;-4.90;83.80
13992;DHT22;7070;53.586;9.692;2022-12-17T06:52:41;-5.00;83.60
13992;DHT22;7070;53.586;9.692;2022-12-17T06:55:25;-4.90;84.50
13992;DHT22;7070;53.586;9.692;2022-12-17T06:58:09;-5.00;83.70
13992;DHT22;7070;53.586;9.692;2022-12-17T07:00:53;-5.00;83.70
13992;DHT22;7070;53.586;9.692;2022-12-17T07:03:37;-5.00;83.80
13992;DHT22;7070;53.586;9.692;2022-12-17T07:06:21;-5.00;83.80
13992;DHT22;7070;53.586;9.692;2022-12-17T07:09:07;-5.00;83.80
13992;DHT22;7070;53.586;9.692;2022-12-17T07:11:52;-4.90;83.90
13992;DHT22;7070;53.586;9.692;2022-12-17T07:14:36;-5.00;83.80
13992;DHT22;7070;53.586;9.692;2022-12-17T07:17:20;-5.00;83.80
13992;DHT22;7070;53.586;9.692;2022-12-17T07:20:12;-5.00;83.80
13992;DHT22;7070;53.586;9.692;2022-12-17T07:22:57;-4.90;83.80
13992;DHT22;7070;53.586;9.692;2022-12-17T07:25:42;-5.00;83.80
13992;DHT22;7070;53.586;9.692;2022-12-17T07:28:27;-5.00;83.80
13992;DHT22;7070;53.586;9.692;2022-12-17T07:31:11;-4.90;83.90
13992;DHT22;7070;53.586;9.692;2022-12-17T07:33:55;-5.00;83.90
13992;DHT22;7070;53.586;9.692;2022-12-17T07:36:39;-4.90;83.90
13992;DHT22;7070;53.586;9.692;2022-12-17T07:39:23;-4.90;83.90
13992;DHT22;7070;53.586;9.692;2022-12-17T07:42:09;-5.00;83.80
13992;DHT22;7070;53.586;9.692;2022-12-17T07:44:53;-5.00;83.80
13992;DHT22;7070;53.586;9.692;2022-12-17T07:47:34;-4.90;84.00
13992;DHT22;7070;53.586;9.692;2022-12-17T07:50:14;-4.90;84.00
13992;DHT22;7070;53.586;9.692;2022-12-17T07:52:59;-4.90;83.90
13992;DHT22;7070;53.586;9.692;2022-12-17T07:55:44;-3.50;85.20
13992;DHT22;7070;53.586;9.692;2022-12-17T07:58:29;-4.90;83.90
13992;DHT22;7070;53.586;9.692;2022-12-17T08:01:14;-4.80;84.00
13992;DHT22;7070;53.586;9.692;2022-12-17T08:03:58;-4.80;84.10
13992;DHT22;7070;53.586;9.692;2022-12-17T08:06:42;-4.90;84.00
13992;DHT22;7070;53.586;9.692;2022-12-17T08:09:26;-4.80;84.10
13992;DHT22;7070;53.586;9.692;2022-12-17T08:12:11;-4.80;84.10
13992;DHT22;7070;53.586;9.692;2022-12-17T08:14:56;-4.70;84.20
13992;DHT22;7070;53.586;9.692;2022-12-17T08:17:40;-4.70;84.20
13992;DHT22;7070;53.586;9.692;2022-12-17T08:20:24;-4.70;84.10
13992;DHT22;7070;53.586;9.692;2022-12-17T08:23:08;-4.60;84.20
13992;DHT22;7070;53.586;9.692;2022-12-17T08:25:53;-4.60;84.10
13992;DHT22;7070;53.586;9.692;2022-12-17T08:28:37;-4.50;84.10
13992;DHT22;7070;53.586;9.692;2022-12-17T08:31:23;-4.60;84.00
13992;DHT22;7070;53.586;9.692;2022-12-17T08:34:08;-4.60;84.00
13992;DHT22;7070;53.586;9.692;2022-12-17T08:36:53;-4.50;84.70
13992;DHT22;7070;53.586;9.692;2022-12-17T08:39:37;-4.50;84.00
13992;DHT22;7070;53.586;9.692;2022-12-17T08:42:21;-4.50;84.00
13992;DHT22;7070;53.586;9.692;2022-12-17T08:45:06;-4.50;84.10
13992;DHT22;7070;53.586;9.692;2022-12-17T08:47:52;-4.40;84.20
13992;DHT22;7070;53.586;9.692;2022-12-17T08:50:32;-4.40;84.30
13992;DHT22;7070;53.586;9.692;2022-12-17T08:53:17;-4.40;84.20
13992;DHT22;7070;53.586;9.692;2022-12-17T08:56:01;-2.90;85.60
13992;DHT22;7070;53.586;9.692;2022-12-17T08:58:45;-4.20;84.40
13992;DHT22;7070;53.586;9.692;2022-12-17T09:01:29;-4.20;84.40
13992;DHT22;7070;53.586;9.692;2022-12-17T09:04:15;-4.10;84.50
13992;DHT22;7070;53.586;9.692;2022-12-17T09:06:59;-4.00;84.60
13992;DHT22;7070;53.586;9.692;2022-12-17T09:09:44;-4.00;84.70
13992;DHT22;7070;53.586;9.692;2022-12-17T09:12:28;-3.90;84.70
13992;DHT22;7070;53.586;9.692;2022-12-17T09:15:13;-3.90;84.80
13992;DHT22;7070;53.586;9.692;2022-12-17T09:17:57;-3.90;84.70
13992;DHT22;7070;53.586;9.692;2022-12-17T09:20:43;-3.70;84.80
13992;DHT22;7070;53.586;9.692;2022-12-17T09:23:27;-3.70;84.80
13992;DHT22;7070;53.586;9.692;2022-12-17T09:26:11;-3.70;84.80
13992;DHT22;7070;53.586;9.692;2022-12-17T09:29:01;-3.60;84.90
13992;DHT22;7070;53.586;9.692;2022-12-17T09:31:45;-3.50;84.90
13992;DHT22;7070;53.586;9.692;2022-12-17T09:34:29;-3.40;85.00
13992;DHT22;7070;53.586;9.692;2022-12-17T09:37:15;-3.40;84.90
13992;DHT22;7070;53.586;9.692;2022-12-17T09:39:59;-3.30;85.00
13992;DHT22;7070;53.586;9.692;2022-12-17T09:42:48;-3.40;85.00
13992;DHT22;7070;53.586;9.692;2022-12-17T09:45:39;-3.20;85.20
13992;DHT22;7070;53.586;9.692;2022-12-17T09:48:31;-3.20;85.10
13992;DHT22;7070;53.586;9.692;2022-12-17T09:51:21;-3.10;85.20
13992;DHT22;7070;53.586;9.692;2022-12-17T09:54:13;-3.00;85.30
13992;DHT22;7070;53.586;9.692;2022-12-17T09:56:58;-3.00;85.30
13992;DHT22;7070;53.586;9.692;2022-12-17T09:59:43;-2.90;85.40
13992;DHT22;7070;53.586;9.692;2022-12-17T10:02:28;-2.80;85.50
13992;DHT22;7070;53.586;9.692;2022-12-17T10:05:16;-2.70;85.50
13992;DHT22;7070;53.586;9.692;2022-12-17T10:08:04;-2.70;85.50
13992;DHT22;7070;53.586;9.692;2022-12-17T10:10:50;-2.60;85.60
13992;DHT22;7070;53.586;9.692;2022-12-17T10:13:49;-2.60;85.60
13992;DHT22;7070;53.586;9.692;2022-12-17T10:16:40;-2.50;85.80
13992;DHT22;7070;53.586;9.692;2022-12-17T10:19:29;-2.40;85.80
13992;DHT22;7070;53.586;9.692;2022-12-17T10:22:16;-2.40;85.70
13992;DHT22;7070;53.586;9.692;2022-12-17T10:25:01;-2.30;85.80
13992;DHT22;7070;53.586;9.692;2022-12-17T10:27:47;-2.20;85.80
13992;DHT22;7070;53.586;9.692;2022-12-17T10:30:32;-2.20;85.80
13992;DHT22;7070;53.586;9.692;2022-12-17T10:33:18;-2.10;85.70
13992;DHT22;7070;53.586;9.692;2022-12-17T10:36:05;-2.10;85.70
13992;DHT22;7070;53.586;9.692;2022-12-17T10:39:02;-2.00;85.90
13992;DHT22;7070;53.586;9.692;2022-12-17T10:41:47;-1.90;85.90
13992;DHT22;7070;53.586;9.692;2022-12-17T10:44:35;-1.90;85.90
13992;DHT22;7070;53.586;9.692;2022-12-17T10:47:21;-1.80;86.00
13992;DHT22;7070;53.586;9.692;2022-12-17T10:50:10;-1.80;86.00
13992;DHT22;7070;53.586;9.692;2022-12-17T10:52:55;-1.70;86.10
13992;DHT22;7070;53.586;9.692;2022-12-17T10:55:53;-1.60;86.10
13992;DHT22;7070;53.586;9.692;2022-12-17T10:58:42;-1.50;86.20
13992;DHT22;7070;53.586;9.692;2022-12-17T11:01:29;-1.50;86.90
13992;DHT22;7070;53.586;9.692;2022-12-17T11:04:23;-1.50;86.10
13992;DHT22;7070;53.586;9.692;2022-12-17T11:07:08;-1.40;86.20
13992;DHT22;7070;53.586;9.692;2022-12-17T11:09:55;-1.30;86.10
13992;DHT22;7070;53.586;9.692;2022-12-17T11:12:43;-1.30;86.10
13992;DHT22;7070;53.586;9.692;2022-12-17T11:15:32;-1.20;86.10
13992;DHT22;7070;53.586;9.692;2022-12-17T11:18:22;-1.20;86.90
13992;DHT22;7070;53.586;9.692;2022-12-17T11:21:10;-1.20;86.20
13992;DHT22;7070;53.586;9.692;2022-12-17T11:23:56;-1.10;86.30
13992;DHT22;7070;53.586;9.692;2022-12-17T11:26:44;-1.10;86.20
13992;DHT22;7070;53.586;9.692;2022-12-17T11:29:30;-1.10;86.20
13992;DHT22;7070;53.586;9.692;2022-12-17T11:32:33;-1.00;86.30
13992;DHT22;7070;53.586;9.692;2022-12-17T11:35:33;-0.90;86.40
13992;DHT22;7070;53.586;9.692;2022-12-17T11:38:25;-0.90;87.00
13992;DHT22;7070;53.586;9.692;2022-12-17T11:41:16;-0.90;86.80
13992;DHT22;7070;53.586;9.692;2022-12-17T11:44:06;-0.80;86.40
13992;DHT22;7070;53.586;9.692;2022-12-17T11:47:01;-0.80;86.40
13992;DHT22;7070;53.586;9.692;2022-12-17T11:49:54;-0.70;86.40
13992;DHT22;7070;53.586;9.692;2022-12-17T11:52:48;-0.70;87.20
13992;DHT22;7070;53.586;9.692;2022-12-17T11:55:38;-0.60;87.20
13992;DHT22;7070;53.586;9.692;2022-12-17T11:58:28;-0.60;86.50
13992;DHT22;7070;53.586;9.692;2022-12-17T12:01:19;-0.60;86.50
13992;DHT22;7070;53.586;9.692;2022-12-17T12:04:16;-0.50;86.70
13992;DHT22;7070;53.586;9.692;2022-12-17T12:07:09;-0.50;86.50
13992;DHT22;7070;53.586;9.692;2022-12-17T12:10:01;-0.50;86.60
13992;DHT22;7070;53.586;9.692;2022-12-17T12:12:53;-0.40;86.70
13992;DHT22;7070;53.586;9.692;2022-12-17T12:15:46;-0.50;86.60
13992;DHT22;7070;53.586;9.692;2022-12-17T12:18:37;-0.30;86.70
13992;DHT22;7070;53.586;9.692;2022-12-17T12:21:40;-0.40;86.70
13992;DHT22;7070;53.586;9.692;2022-12-17T12:24:51;-0.30;86.60
13992;DHT22;7070;53.586;9.692;2022-12-17T12:27:49;-0.30;86.60
13992;DHT22;7070;53.586;9.692;2022-12-17T12:30:39;-0.30;86.80
13992;DHT22;7070;53.586;9.692;2022-12-17T12:33:30;-0.20;86.80
13992;DHT22;7070;53.586;9.692;2022-12-17T12:36:18;-0.20;86.80
13992;DHT22;7070;53.586;9.692;2022-12-17T12:39:03;-0.20;86.90
13992;DHT22;7070;53.586;9.692;2022-12-17T12:41:52;-0.20;86.80
13992;DHT22;7070;53.586;9.692;2022-12-17T12:44:45;-0.10;86.80
13992;DHT22;7070;53.586;9.692;2022-12-17T12:47:44;-0.20;86.60
13992;DHT22;7070;53.586;9.692;2022-12-17T12:50:33;-0.10;86.80
13992;DHT22;7070;53.586;9.692;2022-12-17T12:53:22;-0.10;86.70
13992;DHT22;7070;53.586;9.692;2022-12-17T12:56:24;-0.10;86.70
13992;DHT22;7070;53.586;9.692;2022-12-17T12:59:11;0.00;86.70
13992;DHT22;7070;53.586;9.692;2022-12-17T13:01:57;0.00;86.90
13992;DHT22;7070;53.586;9.692;2022-12-17T13:04:43;0.10;86.90
13992;DHT22;7070;53.586;9.692;2022-12-17T13:07:29;0.10;86.80
13992;DHT22;7070;53.586;9.692;2022-12-17T13:09:58;0.00;86.70
13992;DHT22;7070;53.586;9.692;2022-12-17T13:12:31;0.00;86.60
13992;DHT22;7070;53.586;9.692;2022-12-17T13:15:09;0.00;86.60
13992;DHT22;7070;53.586;9.692;2022-12-17T13:17:45;0.00;86.60
13992;DHT22;7070;53.586;9.692;2022-12-17T13:20:25;0.00;86.80
13992;DHT22;7070;53.586;9.692;2022-12-17T13:23:11;0.10;87.20
13992;DHT22;7070;53.586;9.692;2022-12-17T13:25:39;0.20;87.40
13992;DHT22;7070;53.586;9.692;2022-12-17T13:28:24;0.30;87.50
13992;DHT22;7070;53.586;9.692;2022-12-17T13:31:03;0.50;87.80
13992;DHT22;7070;53.586;9.692;2022-12-17T13:33:38;0.60;87.60
13992;DHT22;7070;53.586;9.692;2022-12-17T13:36:12;0.80;87.50
13992;DHT22;7070;53.586;9.692;2022-12-17T13:38:48;0.80;87.50
13992;DHT22;7070;53.586;9.692;2022-12-17T13:41:18;1.00;87.40
13992;DHT22;7070;53.586;9.692;2022-12-17T13:43:47;1.00;87.00
13992;DHT22;7070;53.586;9.692;2022-12-17T13:46:20;1.10;86.70
13992;DHT22;7070;53.586;9.692;2022-12-17T13:48:56;1.00;86.20
13992;DHT22;7070;53.586;9.692;2022-12-17T13:51:26;1.00;86.00
13992;DHT22;7070;53.586;9.692;2022-12-17T13:53:54;0.90;85.80
13992;DHT22;7070;53.586;9.692;2022-12-17T13:56:24;0.90;85.80
13992;DHT22;7070;53.586;9.692;2022-12-17T13:58:52;0.70;85.50
13992;DHT22;7070;53.586;9.692;2022-12-17T14:01:22;0.60;85.40
13992;DHT22;7070;53.586;9.692;2022-12-17T14:03:53;0.50;85.20
13992;DHT22;7070;53.586;9.692;2022-12-17T14:06:23;0.40;85.50
13992;DHT22;7070;53.586;9.692;2022-12-17T14:08:52;0.40;85.40
13992;DHT22;7070;53.586;9.692;2022-12-17T14:11:20;0.20;85.30
13992;DHT22;7070;53.586;9.692;2022-12-17T14:14:11;0.20;85.30
13992;DHT22;7070;53.586;9.692;2022-12-17T14:16:41;0.10;85.40
13992;DHT22;7070;53.586;9.692;2022-12-17T14:19:08;0.10;85.70
13992;DHT22;7070;53.586;9.692;2022-12-17T14:21:37;-0.10;85.50
13992;DHT22;7070;53.586;9.692;2022-12-17T14:24:06;-0.20;85.40
13992;DHT22;7070;53.586;9.692;2022-12-17T14:26:46;-0.20;85.50
13992;DHT22;7070;53.586;9.692;2022-12-17T14:29:13;-0.30;85.40
13992;DHT22;7070;53.586;9.692;2022-12-17T14:31:51;-0.30;85.50
13992;DHT22;7070;53.586;9.692;2022-12-17T14:34:18;-0.40;85.40
13992;DHT22;7070;53.586;9.692;2022-12-17T14:36:53;-0.50;85.30
13992;DHT22;7070;53.586;9.692;2022-12-17T14:39:23;-0.60;85.30
13992;DHT22;7070;53.586;9.692;2022-12-17T14:41:51;-0.60;85.30
13992;DHT22;7070;53.586;9.692;2022-12-17T14:44:47;-0.70;85.20
13992;DHT22;7070;53.586;9.692;2022-12-17T14:47:18;-0.90;85.10
13992;DHT22;7070;53.586;9.692;2022-12-17T14:50:22;-1.00;85.10
13992;DHT22;7070;53.586;9.692;2022-12-17T14:52:52;-1.00;85.10
13992;DHT22;7070;53.586;9.692;2022-12-17T14:55:32;-1.10;85.00
13992;DHT22;7070;53.586;9.692;2022-12-17T14:58:21;-1.30;84.70
13992;DHT22;7070;53.586;9.692;2022-12-17T15:00:51;-1.30;85.00
13992;DHT22;7070;53.586;9.692;2022-12-17T15:03:21;-1.40;85.70
13992;DHT22;7070;53.586;9.692;2022-12-17T15:05:51;-1.50;85.00
13992;DHT22;7070;53.586;9.692;2022-12-17T15:08:20;-1.60;85.00
13992;DHT22;7070;53.586;9.692;2022-12-17T15:10:48;-1.60;85.00
13992;DHT22;7070;53.586;9.692;2022-12-17T15:13:15;-1.70;85.00
13992;DHT22;7070;53.586;9.692;2022-12-17T15:15:42;-1.80;85.00
13992;DHT22;7070;53.586;9.692;2022-12-17T15:18:12;-1.90;85.00
13992;DHT22;7070;53.586;9.692;2022-12-17T15:20:39;-1.90;85.00
13992;DHT22;7070;53.586;9.692;2022-12-17T15:23:11;0.10;87.00
13992;DHT22;7070;53.586;9.692;2022-12-17T15:25:40;-2.10;85.00
13992;DHT22;7070;53.586;9.692;2022-12-17T15:28:08;-2.10;85.10
13992;DHT22;7070;53.586;9.692;2022-12-17T15:30:35;-2.10;85.20
13992;DHT22;7070;53.586;9.692;2022-12-17T15:33:02;-2.20;85.10
13992;DHT22;7070;53.586;9.692;2022-12-17T15:35:29;-2.30;85.10
13992;DHT22;7070;53.586;9.692;2022-12-17T15:37:56;-2.30;85.10
13992;DHT22;7070;53.586;9.692;2022-12-17T15:40:23;-2.30;85.10
13992;DHT22;7070;53.586;9.692;2022-12-17T15:42:51;-2.30;85.10
13992;DHT22;7070;53.586;9.692;2022-12-17T15:45:34;-2.40;85.00
13992;DHT22;7070;53.586;9.692;2022-12-17T15:48:01;-2.50;84.80
13992;DHT22;7070;53.586;9.692;2022-12-17T15:50:28;-2.50;85.00
13992;DHT22;7070;53.586;9.692;2022-12-17T15:52:55;-2.60;84.90
13992;DHT22;7070;53.586;9.692;2022-12-17T15:55:21;-2.60;85.00
13992;DHT22;7070;53.586;9.692;2022-12-17T15:57:48;-2.70;85.00
13992;DHT22;7070;53.586;9.692;2022-12-17T16:00:17;-2.70;85.10
13992;DHT22;7070;53.586;9.692;2022-12-17T16:02:45;-2.70;85.20
13992;DHT22;7070;53.586;9.692;2022-12-17T16:05:12;-2.70;85.20
13992;DHT22;7070;53.586;9.692;2022-12-17T16:07:39;-2.80;85.10
13992;DHT22;7070;53.586;9.692;2022-12-17T16:10:08;-2.80;85.10
13992;DHT22;7070;53.586;9.692;2022-12-17T16:12:36;-2.80;85.10
13992;DHT22;7070;53.586;9.692;2022-12-17T16:15:03;-2.90;85.00
13992;DHT22;7070;53.586;9.692;2022-12-17T16:17:32;-2.90;85.00
13992;DHT22;7070;53.586;9.692;2022-12-17T16:19:59;-2.90;85.10
13992;DHT22;7070;53.586;9.692;2022-12-17T16:22:26;-3.00;85.00
13992;DHT22;7070;53.586;9.692;2022-12-17T16:24:53;-3.00;85.10
13992;DHT22;7070;53.586;9.692;2022-12-17T16:27:20;-3.00;85.10
13992;DHT22;7070;53.586;9.692;2022-12-17T16:29:47;-3.00;85.10
13992;DHT22;7070;53.586;9.692;2022-12-17T16:32:14;-3.00;85.10
13992;DHT22;7070;53.586;9.692;2022-12-17T16:34:42;-3.10;84.90
13992;DHT22;7070;53.586;9.692;2022-12-17T16:37:09;-3.10;84.90
13992;DHT22;7070;53.586;9.692;2022-12-17T16:39:36;-3.10;85.00
13992;DHT22;7070;53.586;9.692;2022-12-17T16:42:03;-3.10;85.00
13992;DHT22;7070;53.586;9.692;2022-12-17T16:44:30;-3.20;84.80
13992;DHT22;7070;53.586;9.692;2022-12-17T16:46:57;-3.20;84.80
13992;DHT22;7070;53.586;9.692;2022-12-17T16:49:24;-3.30;84.90
13992;DHT22;7070;53.586;9.692;2022-12-17T16:51:53;-3.30;85.50
13992;DHT22;7070;53.586;9.692;2022-12-17T16:54:22;-3.30;84.80
13992;DHT22;7070;53.586;9.692;2022-12-17T16:56:51;-3.30;84.70
13992;DHT22;7070;53.586;9.692;2022-12-17T16:59:18;-3.40;84.70
13992;DHT22;7070;53.586;9.692;2022-12-17T17:01:47;-3.40;84.60
13992;DHT22;7070;53.586;9.692;2022-12-17T17:04:17;-3.50;84.50
13992;DHT22;7070;53.586;9.692;2022-12-17T17:06:46;-3.50;84.50
13992;DHT22;7070;53.586;9.692;2022-12-17T17:09:15;-3.60;84.40
13992;DHT22;7070;53.586;9.692;2022-12-17T17:11:42;-3.60;84.50
13992;DHT22;7070;53.586;9.692;2022-12-17T17:14:09;-3.60;84.50
13992;DHT22;7070;53.586;9.692;2022-12-17T17:16:38;-3.60;84.60
13992;DHT22;7070;53.586;9.692;2022-12-17T17:19:05;-3.60;84.60
13992;DHT22;7070;53.586;9.692;2022-12-17T17:21:33;-3.70;84.60
13992;DHT22;7070;53.586;9.692;2022-12-17T17:24:02;-3.80;84.40